createdAt,value
2019-03-05T00:00:08.784Z,0.00
2019-03-05T00:01:08.777Z,0.00
2019-03-05T00:02:08.759Z,0.00
2019-03-05T00:03:08.753Z,0.00
2019-03-05T00:04:08.746Z,0.00
2019-03-05T00:05:08.733Z,0.00
2019-03-05T00:06:08.720Z,0.00
2019-03-05T00:07:08.711Z,0.00
2019-03-05T00:08:08.701Z,0.00
2019-03-05T00:09:08.685Z,0.00
2019-03-05T00:10:08.679Z,0.00
2019-03-05T00:11:08.673Z,0.00
2019-03-05T00:12:08.660Z,0.00
2019-03-05T00:13:08.647Z,0.00
2019-03-05T00:14:08.637Z,0.00
2019-03-05T00:15:08.627Z,0.00
2019-03-05T00:16:08.618Z,0.00
2019-03-05T00:17:08.606Z,0.00
2019-03-05T00:18:08.598Z,0.00
2019-03-05T00:19:08.586Z,0.00
2019-03-05T00:20:08.581Z,0.00
2019-03-05T00:21:08.564Z,0.00
2019-03-05T00:22:08.551Z,0.00
2019-03-05T00:23:08.616Z,0.00
2019-03-05T00:24:08.532Z,0.00
2019-03-05T00:25:08.522Z,0.00
2019-03-05T00:26:08.509Z,0.00
2019-03-05T00:27:08.499Z,0.00
2019-03-05T00:28:08.490Z,0.00
2019-03-05T00:29:08.478Z,0.00
2019-03-05T00:30:08.468Z,0.00
2019-03-05T00:31:08.457Z,0.00
2019-03-05T00:32:08.447Z,0.00
2019-03-05T00:33:08.439Z,0.00
2019-03-05T00:34:08.426Z,0.00
2019-03-05T00:35:08.414Z,0.00
2019-03-05T00:36:08.407Z,0.00
2019-03-05T00:37:08.397Z,0.00
2019-03-05T00:38:08.382Z,0.00
2019-03-05T00:39:08.372Z,0.00
2019-03-05T00:40:08.360Z,0.00
2019-03-05T00:41:08.351Z,0.00
2019-03-05T00:42:08.338Z,0.00
2019-03-05T00:43:08.329Z,0.00
2019-03-05T00:44:08.317Z,0.00
2019-03-05T00:45:08.307Z,0.00
2019-03-05T00:46:08.297Z,0.00
2019-03-05T00:47:08.286Z,0.00
2019-03-05T00:48:08.277Z,0.00
2019-03-05T00:49:08.268Z,0.00
2019-03-05T00:50:08.253Z,0.00
2019-03-05T00:51:08.242Z,0.00
2019-03-05T00:52:08.233Z,0.00
2019-03-05T00:53:08.222Z,0.00
2019-03-05T00:54:08.211Z,0.00
2019-03-05T00:55:09.844Z,0.00
2019-03-05T00:56:08.188Z,0.00
2019-03-05T00:57:08.177Z,0.00
2019-03-05T00:58:08.167Z,0.00
2019-03-05T00:59:08.156Z,0.00
2019-03-05T01:00:08.150Z,0.00
2019-03-05T01:01:08.136Z,0.00
2019-03-05T01:02:08.124Z,0.00
2019-03-05T01:03:08.116Z,0.00
2019-03-05T01:04:08.106Z,0.00
2019-03-05T01:05:08.094Z,0.00
2019-03-05T01:06:08.081Z,0.00
2019-03-05T01:07:08.070Z,0.00
2019-03-05T01:08:08.061Z,0.00
2019-03-05T01:09:08.050Z,0.00
2019-03-05T01:10:08.039Z,0.00
2019-03-05T01:11:08.027Z,0.00
2019-03-05T01:12:08.019Z,0.00
2019-03-05T01:13:08.011Z,0.00
2019-03-05T01:14:07.996Z,0.00
2019-03-05T01:15:07.987Z,0.00
2019-03-05T01:16:07.976Z,0.00
2019-03-05T01:17:08.036Z,0.00
2019-03-05T01:18:07.953Z,0.00
2019-03-05T01:19:07.943Z,0.00
2019-03-05T01:20:07.931Z,0.00
2019-03-05T01:21:07.922Z,0.00
2019-03-05T01:22:07.911Z,0.00
2019-03-05T01:23:07.903Z,0.00
2019-03-05T01:24:07.888Z,0.00
2019-03-05T01:25:07.877Z,0.00
2019-03-05T01:26:07.866Z,0.00
2019-03-05T01:27:07.857Z,0.00
2019-03-05T01:28:07.847Z,0.00
2019-03-05T01:29:07.839Z,0.00
2019-03-05T01:30:07.824Z,0.00
2019-03-05T01:31:07.819Z,0.00
2019-03-05T01:32:07.802Z,0.00
2019-03-05T01:33:07.792Z,0.00
2019-03-05T01:34:07.782Z,0.00
2019-03-05T01:35:07.771Z,0.00
2019-03-05T01:36:07.760Z,0.00
2019-03-05T01:37:07.751Z,0.00
2019-03-05T01:38:07.736Z,0.00
2019-03-05T01:39:07.729Z,0.00
2019-03-05T01:40:07.720Z,0.00
2019-03-05T01:41:07.710Z,0.00
2019-03-05T01:42:07.697Z,0.00
2019-03-05T01:43:07.687Z,0.00
2019-03-05T01:44:07.740Z,0.00
2019-03-05T01:45:07.706Z,0.00
2019-03-05T01:46:07.654Z,0.00
2019-03-05T01:47:07.647Z,0.00
2019-03-05T01:48:07.632Z,0.00
2019-03-05T01:49:07.622Z,0.00
2019-03-05T01:50:07.611Z,0.00
2019-03-05T01:51:07.601Z,0.00
2019-03-05T01:52:07.592Z,0.00
2019-03-05T01:53:07.581Z,0.00
2019-03-05T01:54:07.569Z,0.00
2019-03-05T01:55:07.557Z,0.00
2019-03-05T01:56:07.546Z,0.00
2019-03-05T01:57:07.537Z,0.00
2019-03-05T01:58:07.524Z,0.00
2019-03-05T01:59:07.514Z,0.00
2019-03-05T02:00:07.503Z,0.00
2019-03-05T02:01:07.492Z,0.00
2019-03-05T02:02:07.487Z,0.00
2019-03-05T02:03:07.473Z,0.00
2019-03-05T02:04:07.465Z,0.00
2019-03-05T02:05:07.450Z,0.00
2019-03-05T02:06:07.442Z,0.00
2019-03-05T02:07:07.433Z,0.00
2019-03-05T02:08:07.417Z,0.00
2019-03-05T02:09:07.407Z,0.00
2019-03-05T02:10:07.396Z,0.00
2019-03-05T02:11:07.387Z,0.00
2019-03-05T02:12:07.374Z,0.00
2019-03-05T02:13:07.363Z,0.00
2019-03-05T02:14:07.356Z,0.00
2019-03-05T02:15:07.341Z,0.00
2019-03-05T02:16:07.333Z,0.00
2019-03-05T02:17:07.320Z,0.00
2019-03-05T02:18:07.310Z,0.00
2019-03-05T02:19:07.300Z,0.00
2019-03-05T02:20:07.290Z,0.00
2019-03-05T02:21:07.279Z,0.00
2019-03-05T02:22:07.266Z,0.00
2019-03-05T02:23:07.255Z,0.00
2019-03-05T02:24:07.245Z,0.00
2019-03-05T02:25:07.238Z,0.00
2019-03-05T02:26:07.224Z,0.00
2019-03-05T02:27:07.215Z,0.00
2019-03-05T02:28:07.203Z,0.00
2019-03-05T02:29:07.192Z,0.00
2019-03-05T02:30:07.181Z,0.00
2019-03-05T02:31:07.172Z,0.00
2019-03-05T02:32:07.159Z,0.00
2019-03-05T02:33:07.148Z,0.00
2019-03-05T02:34:07.138Z,0.00
2019-03-05T02:35:09.053Z,0.00
2019-03-05T02:36:07.119Z,0.00
2019-03-05T02:37:07.106Z,0.00
2019-03-05T02:38:07.149Z,0.00
2019-03-05T02:39:07.085Z,0.00
2019-03-05T02:40:07.076Z,0.00
2019-03-05T02:41:07.065Z,0.00
2019-03-05T02:42:07.054Z,0.00
2019-03-05T02:43:07.041Z,0.00
2019-03-05T02:44:07.031Z,0.00
2019-03-05T02:45:07.018Z,0.00
2019-03-05T02:46:07.013Z,0.00
2019-03-05T02:47:07.000Z,0.00
2019-03-05T02:48:06.989Z,0.00
2019-03-05T02:49:06.975Z,0.00
2019-03-05T02:50:06.965Z,0.00
2019-03-05T02:51:06.953Z,0.00
2019-03-05T02:52:06.944Z,0.00
2019-03-05T02:53:06.932Z,0.00
2019-03-05T02:54:06.920Z,0.00
2019-03-05T02:55:06.910Z,0.00
2019-03-05T02:56:06.906Z,0.00
2019-03-05T02:57:06.890Z,0.00
2019-03-05T02:58:06.879Z,0.00
2019-03-05T02:59:06.917Z,0.00
2019-03-05T03:00:06.858Z,0.00
2019-03-05T03:01:06.848Z,0.00
2019-03-05T03:02:06.845Z,0.00
2019-03-05T03:03:06.828Z,0.00
2019-03-05T03:04:06.816Z,0.00
2019-03-05T03:05:06.805Z,0.00
2019-03-05T03:06:06.797Z,0.00
2019-03-05T03:07:06.785Z,0.00
2019-03-05T03:08:06.777Z,0.00
2019-03-05T03:09:06.768Z,0.00
2019-03-05T03:10:06.754Z,0.00
2019-03-05T03:11:06.746Z,0.00
2019-03-05T03:12:06.737Z,0.00
2019-03-05T03:13:06.738Z,0.00
2019-03-05T03:14:06.715Z,0.00
2019-03-05T03:15:06.707Z,0.00
2019-03-05T03:16:06.694Z,0.00
2019-03-05T03:17:06.687Z,0.00
2019-03-05T03:18:06.672Z,0.00
2019-03-05T03:19:06.669Z,0.00
2019-03-05T03:20:06.658Z,0.00
2019-03-05T03:21:06.645Z,0.00
2019-03-05T03:22:06.633Z,0.00
2019-03-05T03:23:06.625Z,0.00
2019-03-05T03:24:06.616Z,0.00
2019-03-05T03:25:06.607Z,0.00
2019-03-05T03:26:06.597Z,0.00
2019-03-05T03:27:06.584Z,0.00
2019-03-05T03:28:06.634Z,0.00
2019-03-05T03:29:06.563Z,0.00
2019-03-05T03:30:06.555Z,0.00
2019-03-05T03:31:06.545Z,0.00
2019-03-05T03:32:06.535Z,0.00
2019-03-05T03:33:06.555Z,0.00
2019-03-05T03:34:06.627Z,0.00
2019-03-05T03:35:06.505Z,0.00
2019-03-05T03:36:06.496Z,0.00
2019-03-05T03:37:06.487Z,0.00
2019-03-05T03:38:06.478Z,0.00
2019-03-05T03:39:06.471Z,0.00
2019-03-05T03:40:06.464Z,0.00
2019-03-05T03:41:06.448Z,0.00
2019-03-05T03:42:06.436Z,0.00
2019-03-05T03:43:06.427Z,0.00
2019-03-05T03:44:06.417Z,0.00
2019-03-05T03:45:06.417Z,0.00
2019-03-05T03:46:06.399Z,0.00
2019-03-05T03:47:06.388Z,0.00
2019-03-05T03:48:06.378Z,0.00
2019-03-05T03:49:06.372Z,0.00
2019-03-05T03:50:06.356Z,0.00
2019-03-05T03:51:06.347Z,0.00
2019-03-05T03:52:06.336Z,0.00
2019-03-05T03:53:06.341Z,0.00
2019-03-05T03:54:06.316Z,0.00
2019-03-05T03:55:06.311Z,0.00
2019-03-05T03:56:06.306Z,0.00
2019-03-05T03:57:06.287Z,0.00
2019-03-05T03:58:06.281Z,0.00
2019-03-05T03:59:06.267Z,0.00
2019-03-05T04:00:06.262Z,0.00
2019-03-05T04:01:07.279Z,0.00
2019-03-05T04:02:06.238Z,0.00
2019-03-05T04:03:06.229Z,0.00
2019-03-05T04:04:06.217Z,0.00
2019-03-05T04:05:06.210Z,0.00
2019-03-05T04:06:06.198Z,0.00
2019-03-05T04:07:06.184Z,0.00
2019-03-05T04:08:06.183Z,0.00
2019-03-05T04:09:06.167Z,0.00
2019-03-05T04:10:06.156Z,0.00
2019-03-05T04:11:06.146Z,0.00
2019-03-05T04:12:06.138Z,0.00
2019-03-05T04:13:06.128Z,0.00
2019-03-05T04:14:06.116Z,0.00
2019-03-05T04:15:06.106Z,0.00
2019-03-05T04:16:06.097Z,0.00
2019-03-05T04:17:06.089Z,0.00
2019-03-05T04:18:06.127Z,0.00
2019-03-05T04:19:06.068Z,0.00
2019-03-05T04:20:06.053Z,0.00
2019-03-05T04:21:06.041Z,0.00
2019-03-05T04:22:06.034Z,0.00
2019-03-05T04:23:06.023Z,0.00
2019-03-05T04:24:06.015Z,0.00
2019-03-05T04:25:06.005Z,0.00
2019-03-05T04:26:05.991Z,0.00
2019-03-05T04:27:05.982Z,0.00
2019-03-05T04:28:05.974Z,0.00
2019-03-05T04:29:05.962Z,0.00
2019-03-05T04:30:05.951Z,0.00
2019-03-05T04:31:05.939Z,0.00
2019-03-05T04:32:05.929Z,0.00
2019-03-05T04:33:05.921Z,0.00
2019-03-05T04:34:05.920Z,0.00
2019-03-05T04:35:05.901Z,0.00
2019-03-05T04:36:05.889Z,0.00
2019-03-05T04:37:05.880Z,0.00
2019-03-05T04:38:05.869Z,0.00
2019-03-05T04:39:05.861Z,0.00
2019-03-05T04:40:05.848Z,0.00
2019-03-05T04:41:05.837Z,0.00
2019-03-05T04:42:05.825Z,0.00
2019-03-05T04:43:05.817Z,0.00
2019-03-05T04:44:05.806Z,0.00
2019-03-05T04:45:05.799Z,0.00
2019-03-05T04:46:05.790Z,0.00
2019-03-05T04:47:05.777Z,0.00
2019-03-05T04:48:05.773Z,0.00
2019-03-05T04:49:05.757Z,0.00
2019-03-05T04:50:05.751Z,0.00
2019-03-05T04:51:05.735Z,0.00
2019-03-05T04:52:05.725Z,0.00
2019-03-05T04:53:05.717Z,0.00
2019-03-05T04:54:05.705Z,0.00
2019-03-05T04:55:05.694Z,0.00
2019-03-05T04:56:05.689Z,0.00
2019-03-05T04:57:05.683Z,0.00
2019-03-05T04:58:05.663Z,0.00
2019-03-05T04:59:05.653Z,0.00
2019-03-05T05:00:05.644Z,0.00
2019-03-05T05:01:05.637Z,0.00
2019-03-05T05:02:05.627Z,0.00
2019-03-05T05:03:05.615Z,0.00
2019-03-05T05:04:05.603Z,0.00
2019-03-05T05:05:05.594Z,0.00
2019-03-05T05:06:05.584Z,0.00
2019-03-05T05:07:05.576Z,0.00
2019-03-05T05:08:06.920Z,0.00
2019-03-05T05:09:05.554Z,0.00
2019-03-05T05:10:05.544Z,0.00
2019-03-05T05:11:05.533Z,0.00
2019-03-05T05:12:05.524Z,0.00
2019-03-05T05:13:05.521Z,0.00
2019-03-05T05:14:05.507Z,0.00
2019-03-05T05:15:05.494Z,0.00
2019-03-05T05:16:05.488Z,0.00
2019-03-05T05:17:05.475Z,0.00
2019-03-05T05:18:05.466Z,0.00
2019-03-05T05:19:05.455Z,0.00
2019-03-05T05:20:05.446Z,0.00
2019-03-05T05:21:05.437Z,0.00
2019-03-05T05:22:05.426Z,0.00
2019-03-05T05:23:05.417Z,0.00
2019-03-05T05:24:05.411Z,0.00
2019-03-05T05:25:05.401Z,0.00
2019-03-05T05:26:05.389Z,0.00
2019-03-05T05:27:05.378Z,0.00
2019-03-05T05:28:05.368Z,0.00
2019-03-05T05:29:05.359Z,0.00
2019-03-05T05:30:05.348Z,0.00
2019-03-05T05:31:05.339Z,0.00
2019-03-05T05:32:05.340Z,0.00
2019-03-05T05:33:05.322Z,0.00
2019-03-05T05:34:05.304Z,0.00
2019-03-05T05:35:05.304Z,0.00
2019-03-05T05:36:05.294Z,0.00
2019-03-05T05:37:05.281Z,0.00
2019-03-05T05:38:05.275Z,0.00
2019-03-05T05:39:05.262Z,0.00
2019-03-05T05:40:05.265Z,0.00
2019-03-05T05:41:05.244Z,0.00
2019-03-05T05:42:05.264Z,0.00
2019-03-05T05:43:05.221Z,0.00
2019-03-05T05:44:05.211Z,0.00
2019-03-05T05:45:05.202Z,0.00
2019-03-05T05:46:05.191Z,5.63
2019-03-05T05:47:05.184Z,5.63
2019-03-05T05:48:05.172Z,5.63
2019-03-05T05:49:05.164Z,5.63
2019-03-05T05:50:05.155Z,5.63
2019-03-05T05:51:05.144Z,11.25
2019-03-05T05:52:05.134Z,11.25
2019-03-05T05:53:05.122Z,11.25
2019-03-05T05:54:05.112Z,11.25
2019-03-05T05:55:05.101Z,11.25
2019-03-05T05:56:05.093Z,16.88
2019-03-05T05:57:05.082Z,16.88
2019-03-05T05:58:06.258Z,16.88
2019-03-05T05:59:05.060Z,22.50
2019-03-05T06:00:05.052Z,22.50
2019-03-05T06:01:05.041Z,22.50
2019-03-05T06:02:05.031Z,22.50
2019-03-05T06:03:05.021Z,28.13
2019-03-05T06:04:05.011Z,28.13
2019-03-05T06:05:05.003Z,33.75
2019-03-05T06:06:04.990Z,33.75
2019-03-05T06:07:04.980Z,39.38
2019-03-05T06:08:04.974Z,39.38
2019-03-05T06:09:04.962Z,45.00
2019-03-05T06:10:04.948Z,45.00
2019-03-05T06:11:04.939Z,45.00
2019-03-05T06:12:04.930Z,50.63
2019-03-05T06:13:04.919Z,50.63
2019-03-05T06:14:04.909Z,56.25
2019-03-05T06:15:04.899Z,61.88
2019-03-05T06:16:04.890Z,67.50
2019-03-05T06:17:04.879Z,67.50
2019-03-05T06:18:04.870Z,67.50
2019-03-05T06:19:04.857Z,73.13
2019-03-05T06:20:04.849Z,73.13
2019-03-05T06:21:04.836Z,73.13
2019-03-05T06:22:04.833Z,78.75
2019-03-05T06:23:04.817Z,78.75
2019-03-05T06:24:04.807Z,106.88
2019-03-05T06:25:04.798Z,101.25
2019-03-05T06:26:04.789Z,95.63
2019-03-05T06:27:04.777Z,95.63
2019-03-05T06:28:04.765Z,101.25
2019-03-05T06:29:04.755Z,106.88
2019-03-05T06:30:04.747Z,106.88
2019-03-05T06:31:04.736Z,101.25
2019-03-05T06:32:04.728Z,101.25
2019-03-05T06:33:04.717Z,101.25
2019-03-05T06:34:04.704Z,101.25
2019-03-05T06:35:04.695Z,101.25
2019-03-05T06:36:04.685Z,106.88
2019-03-05T06:37:04.678Z,112.50
2019-03-05T06:38:04.667Z,123.75
2019-03-05T06:39:04.654Z,135.00
2019-03-05T06:40:04.647Z,129.38
2019-03-05T06:41:04.634Z,135.00
2019-03-05T06:42:04.626Z,146.25
2019-03-05T06:43:04.614Z,157.50
2019-03-05T06:44:04.605Z,129.38
2019-03-05T06:45:04.605Z,129.38
2019-03-05T06:46:04.593Z,129.38
2019-03-05T06:47:04.574Z,146.25
2019-03-05T06:48:06.684Z,146.25
2019-03-05T06:49:04.555Z,225.00
2019-03-05T06:50:04.543Z,270.00
2019-03-05T06:51:04.533Z,270.00
2019-03-05T06:52:04.529Z,213.75
2019-03-05T06:53:04.526Z,163.13
2019-03-05T06:54:04.506Z,191.25
2019-03-05T06:55:04.503Z,258.75
2019-03-05T06:56:04.488Z,247.50
2019-03-05T06:57:04.480Z,236.25
2019-03-05T06:58:04.473Z,247.50
2019-03-05T06:59:04.461Z,286.88
2019-03-05T07:00:04.497Z,320.63
2019-03-05T07:01:04.443Z,236.25
2019-03-05T07:02:04.434Z,180.00
2019-03-05T07:03:04.422Z,151.88
2019-03-05T07:04:04.415Z,168.75
2019-03-05T07:05:04.408Z,196.88
2019-03-05T07:06:04.396Z,500.63
2019-03-05T07:07:04.388Z,517.50
2019-03-05T07:08:04.381Z,528.75
2019-03-05T07:09:04.371Z,433.13
2019-03-05T07:10:04.360Z,500.63
2019-03-05T07:11:04.355Z,455.63
2019-03-05T07:12:04.346Z,483.75
2019-03-05T07:13:04.343Z,320.63
2019-03-05T07:14:04.333Z,500.63
2019-03-05T07:15:04.325Z,506.25
2019-03-05T07:16:04.320Z,523.13
2019-03-05T07:17:04.314Z,523.13
2019-03-05T07:18:04.303Z,528.75
2019-03-05T07:19:04.298Z,523.13
2019-03-05T07:20:04.300Z,506.25
2019-03-05T07:21:04.287Z,528.75
2019-03-05T07:22:04.281Z,540.00
2019-03-05T07:23:04.280Z,551.25
2019-03-05T07:24:04.273Z,551.25
2019-03-05T07:25:04.265Z,556.88
2019-03-05T07:26:04.259Z,556.88
2019-03-05T07:27:04.253Z,579.38
2019-03-05T07:28:04.251Z,590.63
2019-03-05T07:29:04.245Z,585.00
2019-03-05T07:30:04.239Z,585.00
2019-03-05T07:31:04.237Z,669.38
2019-03-05T07:32:04.234Z,590.63
2019-03-05T07:33:04.228Z,686.25
2019-03-05T07:34:04.223Z,697.50
2019-03-05T07:35:04.223Z,393.75
2019-03-05T07:36:04.215Z,725.63
2019-03-05T07:37:04.212Z,663.75
2019-03-05T07:38:06.240Z,708.75
2019-03-05T07:39:04.204Z,601.88
2019-03-05T07:40:04.202Z,371.25
2019-03-05T07:41:04.198Z,315.00
2019-03-05T07:42:04.191Z,315.00
2019-03-05T07:43:04.192Z,360.00
2019-03-05T07:44:04.186Z,382.50
2019-03-05T07:45:04.184Z,551.25
2019-03-05T07:46:04.176Z,416.25
2019-03-05T07:47:04.172Z,303.75
2019-03-05T07:48:04.170Z,838.13
2019-03-05T07:49:04.165Z,793.13
2019-03-05T07:50:04.164Z,815.63
2019-03-05T07:51:04.159Z,697.50
2019-03-05T07:52:04.151Z,360.00
2019-03-05T07:53:04.149Z,787.50
2019-03-05T07:54:04.147Z,922.50
2019-03-05T07:55:13.176Z,821.25
2019-03-05T07:56:04.139Z,573.75
2019-03-05T07:57:04.139Z,652.50
2019-03-05T07:58:04.132Z,708.75
2019-03-05T07:59:04.128Z,551.25
2019-03-05T08:00:05.482Z,860.63
2019-03-05T08:01:04.124Z,618.75
2019-03-05T08:02:04.121Z,579.38
2019-03-05T08:03:04.118Z,950.63
2019-03-05T08:04:04.116Z,579.38
2019-03-05T08:05:04.110Z,973.13
2019-03-05T08:06:04.108Z,714.38
2019-03-05T08:07:04.105Z,714.38
2019-03-05T08:08:04.102Z,556.88
2019-03-05T08:09:04.099Z,489.38
2019-03-05T08:10:04.101Z,646.88
2019-03-05T08:11:04.093Z,838.13
2019-03-05T08:12:04.091Z,675.00
2019-03-05T08:13:04.087Z,523.13
2019-03-05T08:14:04.082Z,421.88
2019-03-05T08:15:04.079Z,534.38
2019-03-05T08:16:04.075Z,438.75
2019-03-05T08:17:04.069Z,478.13
2019-03-05T08:18:04.088Z,590.63
2019-03-05T08:19:04.064Z,444.38
2019-03-05T08:20:04.061Z,568.13
2019-03-05T08:21:04.056Z,478.13
2019-03-05T08:22:04.051Z,405.00
2019-03-05T08:23:04.048Z,528.75
2019-03-05T08:24:04.044Z,1113.75
2019-03-05T08:25:04.039Z,1023.75
2019-03-05T08:26:04.032Z,613.13
2019-03-05T08:27:04.032Z,298.13
2019-03-05T08:28:04.130Z,551.25
2019-03-05T08:29:04.021Z,1057.50
2019-03-05T08:30:13.728Z,720.00
2019-03-05T08:31:04.028Z,511.88
2019-03-05T08:32:04.012Z,343.13
2019-03-05T08:33:04.015Z,781.88
2019-03-05T08:34:04.003Z,821.25
2019-03-05T08:35:04.002Z,871.88
2019-03-05T08:36:03.996Z,1023.75
2019-03-05T08:37:03.993Z,646.88
2019-03-05T08:38:03.988Z,922.50
2019-03-05T08:39:03.987Z,421.88
2019-03-05T08:40:03.986Z,798.75
2019-03-05T08:41:03.984Z,742.50
2019-03-05T08:42:03.982Z,804.38
2019-03-05T08:43:03.975Z,815.63
2019-03-05T08:44:03.974Z,736.88
2019-03-05T08:45:03.970Z,1029.38
2019-03-05T08:46:03.974Z,860.63
2019-03-05T08:47:03.967Z,776.25
2019-03-05T08:48:03.963Z,860.63
2019-03-05T08:49:03.962Z,607.50
2019-03-05T08:50:03.959Z,956.25
2019-03-05T08:51:03.961Z,455.63
2019-03-05T08:52:03.957Z,781.88
2019-03-05T08:53:03.956Z,888.75
2019-03-05T08:54:03.954Z,866.25
2019-03-05T08:55:03.955Z,888.75
2019-03-05T08:56:03.958Z,748.13
2019-03-05T08:57:03.952Z,343.13
2019-03-05T08:58:03.952Z,804.38
2019-03-05T08:59:03.952Z,894.38
2019-03-05T09:00:03.952Z,826.88
2019-03-05T09:01:03.952Z,1001.25
2019-03-05T09:02:03.954Z,618.75
2019-03-05T09:03:03.953Z,776.25
2019-03-05T09:04:03.958Z,601.88
2019-03-05T09:05:03.955Z,1051.88
2019-03-05T09:06:03.958Z,1040.63
2019-03-05T09:07:03.956Z,1423.13
2019-03-05T09:08:03.960Z,984.38
2019-03-05T09:09:03.967Z,1046.25
2019-03-05T09:10:03.962Z,1260.00
2019-03-05T09:11:03.965Z,1006.88
2019-03-05T09:12:03.965Z,1378.13
2019-03-05T09:13:03.973Z,1293.75
2019-03-05T09:14:03.970Z,579.38
2019-03-05T09:15:03.975Z,911.25
2019-03-05T09:16:03.975Z,905.63
2019-03-05T09:17:03.979Z,1125.00
2019-03-05T09:18:05.824Z,1423.13
2019-03-05T09:19:03.981Z,1175.63
2019-03-05T09:20:03.982Z,1389.38
2019-03-05T09:21:03.985Z,793.13
2019-03-05T09:22:03.985Z,905.63
2019-03-05T09:23:03.989Z,753.75
2019-03-05T09:24:03.993Z,804.38
2019-03-05T09:25:03.993Z,793.13
2019-03-05T09:26:03.994Z,444.38
2019-03-05T09:27:03.996Z,883.13
2019-03-05T09:28:04.020Z,990.00
2019-03-05T09:29:04.003Z,894.38
2019-03-05T09:30:04.004Z,714.38
2019-03-05T09:31:04.007Z,354.38
2019-03-05T09:32:04.010Z,911.25
2019-03-05T09:33:04.011Z,843.75
2019-03-05T09:34:04.016Z,365.63
2019-03-05T09:35:04.015Z,776.25
2019-03-05T09:36:04.019Z,450.00
2019-03-05T09:37:04.018Z,500.63
2019-03-05T09:38:04.034Z,770.63
2019-03-05T09:39:04.019Z,905.63
2019-03-05T09:40:04.023Z,438.75
2019-03-05T09:41:04.022Z,450.00
2019-03-05T09:42:04.026Z,753.75
2019-03-05T09:43:04.027Z,708.75
2019-03-05T09:44:04.030Z,759.38
2019-03-05T09:45:04.028Z,776.25
2019-03-05T09:46:04.031Z,405.00
2019-03-05T09:47:04.032Z,466.88
2019-03-05T09:48:04.032Z,540.00
2019-03-05T09:49:04.038Z,551.25
2019-03-05T09:50:04.040Z,669.38
2019-03-05T09:51:04.042Z,945.00
2019-03-05T09:52:04.038Z,815.63
2019-03-05T09:53:04.040Z,489.38
2019-03-05T09:54:04.037Z,410.63
2019-03-05T09:55:04.039Z,748.13
2019-03-05T09:56:04.038Z,787.50
2019-03-05T09:57:04.040Z,731.25
2019-03-05T09:58:07.929Z,742.50
2019-03-05T09:59:04.043Z,714.38
2019-03-05T10:00:04.041Z,427.50
2019-03-05T10:01:04.044Z,838.13
2019-03-05T10:02:04.044Z,821.25
2019-03-05T10:03:04.048Z,781.88
2019-03-05T10:04:04.046Z,742.50
2019-03-05T10:05:04.049Z,669.38
2019-03-05T10:06:04.050Z,928.13
2019-03-05T10:07:04.055Z,618.75
2019-03-05T10:08:04.095Z,708.75
2019-03-05T10:09:04.056Z,562.50
2019-03-05T10:10:04.057Z,736.88
2019-03-05T10:11:04.055Z,1057.50
2019-03-05T10:12:04.061Z,517.50
2019-03-05T10:13:04.665Z,832.50
2019-03-05T10:14:04.060Z,877.50
2019-03-05T10:15:04.063Z,832.50
2019-03-05T10:16:04.062Z,624.38
2019-03-05T10:17:04.066Z,579.38
2019-03-05T10:18:12.069Z,759.38
2019-03-05T10:19:04.518Z,1057.50
2019-03-05T10:20:04.070Z,742.50
2019-03-05T10:21:04.071Z,798.75
2019-03-05T10:22:04.070Z,1175.63
2019-03-05T10:23:04.074Z,950.63
2019-03-05T10:24:10.477Z,1035.00
2019-03-05T10:25:06.338Z,1074.38
2019-03-05T10:26:04.074Z,1321.88
2019-03-05T10:27:04.092Z,1209.38
2019-03-05T10:28:04.077Z,1231.88
2019-03-05T10:29:04.084Z,1659.38
2019-03-05T10:30:04.083Z,1102.50
2019-03-05T10:31:04.081Z,1119.38
2019-03-05T10:32:04.078Z,1125.00
2019-03-05T10:33:04.087Z,1164.38
2019-03-05T10:34:04.084Z,1158.75
2019-03-05T10:35:04.090Z,1164.38
2019-03-05T10:36:04.153Z,1068.75
2019-03-05T10:37:12.317Z,798.75
2019-03-05T10:38:04.088Z,826.88
2019-03-05T10:39:04.088Z,877.50
2019-03-05T10:40:04.086Z,1046.25
2019-03-05T10:41:04.086Z,1046.25
2019-03-05T10:42:04.083Z,1321.88
2019-03-05T10:43:08.471Z,1417.50
2019-03-05T10:44:04.084Z,1451.25
2019-03-05T10:45:04.084Z,1192.50
2019-03-05T10:46:04.084Z,905.63
2019-03-05T10:47:04.084Z,753.75
2019-03-05T10:48:04.087Z,759.38
2019-03-05T10:49:04.092Z,444.38
2019-03-05T10:50:14.816Z,900.00
2019-03-05T10:51:04.094Z,821.25
2019-03-05T10:52:04.103Z,1181.25
2019-03-05T10:53:04.099Z,855.00
2019-03-05T10:54:04.103Z,770.63
2019-03-05T10:55:04.106Z,680.63
2019-03-05T10:56:04.109Z,680.63
2019-03-05T10:57:04.114Z,703.13
2019-03-05T10:58:04.155Z,675.00
2019-03-05T10:59:05.438Z,883.13
2019-03-05T11:00:04.124Z,736.88
2019-03-05T11:01:04.130Z,399.38
2019-03-05T11:02:04.135Z,511.88
2019-03-05T11:03:04.142Z,815.63
2019-03-05T11:04:04.142Z,725.63
2019-03-05T11:05:04.146Z,714.38
2019-03-05T11:06:04.151Z,675.00
2019-03-05T11:07:04.156Z,697.50
2019-03-05T11:08:04.162Z,725.63
2019-03-05T11:09:04.163Z,686.25
2019-03-05T11:10:04.164Z,652.50
2019-03-05T11:11:13.159Z,663.75
2019-03-05T11:12:04.181Z,646.88
2019-03-05T11:13:04.183Z,652.50
2019-03-05T11:14:04.185Z,641.25
2019-03-05T11:15:04.192Z,646.88
2019-03-05T11:16:04.194Z,652.50
2019-03-05T11:17:04.207Z,652.50
2019-03-05T11:18:04.204Z,663.75
2019-03-05T11:19:04.211Z,298.13
2019-03-05T11:20:04.215Z,630.00
2019-03-05T11:21:04.223Z,691.88
2019-03-05T11:22:04.224Z,697.50
2019-03-05T11:23:04.229Z,562.50
2019-03-05T11:24:04.232Z,703.13
2019-03-05T11:25:04.242Z,495.00
2019-03-05T11:26:04.248Z,843.75
2019-03-05T11:27:04.253Z,720.00
2019-03-05T11:28:04.253Z,781.88
2019-03-05T11:29:04.263Z,551.25
2019-03-05T11:30:04.262Z,1057.50
2019-03-05T11:31:04.266Z,765.00
2019-03-05T11:32:04.272Z,416.25
2019-03-05T11:33:04.275Z,427.50
2019-03-05T11:34:04.279Z,635.63
2019-03-05T11:35:04.280Z,1023.75
2019-03-05T11:36:04.284Z,978.75
2019-03-05T11:37:04.289Z,871.88
2019-03-05T11:38:04.294Z,427.50
2019-03-05T11:39:04.294Z,382.50
2019-03-05T11:40:04.298Z,849.38
2019-03-05T11:41:04.308Z,450.00
2019-03-05T11:42:04.303Z,393.75
2019-03-05T11:43:04.307Z,433.13
2019-03-05T11:44:04.308Z,382.50
2019-03-05T11:45:08.175Z,736.88
2019-03-05T11:46:04.313Z,326.25
2019-03-05T11:47:04.313Z,360.00
2019-03-05T11:48:04.353Z,540.00
2019-03-05T11:49:04.316Z,686.25
2019-03-05T11:50:04.318Z,675.00
2019-03-05T11:51:04.324Z,675.00
2019-03-05T11:52:04.316Z,461.25
2019-03-05T11:53:04.321Z,691.88
2019-03-05T11:54:04.316Z,736.88
2019-03-05T11:55:04.321Z,697.50
2019-03-05T11:56:04.328Z,691.88
2019-03-05T11:57:04.326Z,691.88
2019-03-05T11:58:04.324Z,708.75
2019-03-05T11:59:04.333Z,596.25
2019-03-05T12:00:04.331Z,590.63
2019-03-05T12:01:04.335Z,556.88
2019-03-05T12:02:04.338Z,506.25
2019-03-05T12:03:04.342Z,641.25
2019-03-05T12:04:04.344Z,551.25
2019-03-05T12:05:04.347Z,500.63
2019-03-05T12:06:04.348Z,708.75
2019-03-05T12:07:04.351Z,641.25
2019-03-05T12:08:04.356Z,725.63
2019-03-05T12:09:04.356Z,759.38
2019-03-05T12:10:04.356Z,871.88
2019-03-05T12:11:04.359Z,787.50
2019-03-05T12:12:04.359Z,697.50
2019-03-05T12:13:04.359Z,776.25
2019-03-05T12:14:04.360Z,770.63
2019-03-05T12:15:04.359Z,843.75
2019-03-05T12:16:04.363Z,787.50
2019-03-05T12:17:04.357Z,731.25
2019-03-05T12:18:04.356Z,748.13
2019-03-05T12:19:04.356Z,731.25
2019-03-05T12:20:04.353Z,697.50
2019-03-05T12:21:04.353Z,641.25
2019-03-05T12:22:04.348Z,646.88
2019-03-05T12:23:06.619Z,618.75
2019-03-05T12:24:04.340Z,590.63
2019-03-05T12:25:04.344Z,585.00
2019-03-05T12:26:04.340Z,658.13
2019-03-05T12:27:04.340Z,714.38
2019-03-05T12:28:10.221Z,731.25
2019-03-05T12:29:04.332Z,590.63
2019-03-05T12:30:04.327Z,607.50
2019-03-05T12:31:04.327Z,669.38
2019-03-05T12:32:04.325Z,708.75
2019-03-05T12:33:06.506Z,753.75
2019-03-05T12:34:04.313Z,832.50
2019-03-05T12:35:04.310Z,821.25
2019-03-05T12:36:04.308Z,793.13
2019-03-05T12:37:04.303Z,708.75
2019-03-05T12:38:04.299Z,624.38
2019-03-05T12:39:04.298Z,613.13
2019-03-05T12:40:04.293Z,686.25
2019-03-05T12:41:04.288Z,725.63
2019-03-05T12:42:04.282Z,781.88
2019-03-05T12:43:04.281Z,697.50
2019-03-05T12:44:05.415Z,590.63
2019-03-05T12:45:04.276Z,568.13
2019-03-05T12:46:04.269Z,568.13
2019-03-05T12:47:04.265Z,613.13
2019-03-05T12:48:04.262Z,697.50
2019-03-05T12:49:04.259Z,708.75
2019-03-05T12:50:04.253Z,753.75